Time;durP1;ratioP1;P1;durP2;ratioP2;P2;SDS_P1;SDS_P2;PMS_P1;PMS_P2;Temp;Humidity;BMP_temperature;BMP_pressure;BME280_temperature;BME280_humidity;BME280_pressure;Samples;Min_cycle;Max_cycle;Signal;HPM_P1;HPM_P2
2023/06/03 00:00:43;;;;;;;11.50;0.70;;;;;;;23.99;54.10;99927.63;7315450;19;130357;-39
2023/06/03 00:03:11;;;;;;;43.88;2.22;;;;;;;23.98;53.14;99927.78;7314902;19;129360;-40
2023/06/03 00:05:38;;;;;;;65.18;3.35;;;;;;;24.01;54.07;99933.56;7315103;19;129000;-41
2023/06/03 00:08:03;;;;;;;32.47;1.83;;;;;;;24.00;53.94;99934.53;7315528;19;129315;-41
2023/06/03 00:10:29;;;;;;;80.67;4.50;;;;;;;23.99;53.76;99938.13;7314878;19;129704;-40
2023/06/03 00:12:54;;;;;;;52.90;3.00;;;;;;;23.99;54.09;99942.56;7312057;19;129048;-40
2023/06/03 00:15:20;;;;;;;37.08;2.03;;;;;;;24.00;54.08;99945.03;7315998;19;129311;-40
2023/06/03 00:17:45;;;;;;;25.80;1.33;;;;;;;23.99;53.79;99932.88;7315073;19;129264;-42
2023/06/03 00:20:11;;;;;;;37.60;2.03;;;;;;;23.97;54.54;99924.28;7314709;19;129135;-39
2023/06/03 00:22:37;;;;;;;66.43;3.50;;;;;;;23.90;54.35;99917.97;7313941;19;129728;-39
2023/06/03 00:25:06;;;;;;;27.00;1.40;;;;;;;23.88;54.10;99919.91;7315070;19;128750;-38
2023/06/03 00:27:31;;;;;;;39.90;2.28;;;;;;;23.98;54.11;99936.47;7315343;19;131148;-40
2023/06/03 00:29:57;;;;;;;20.03;1.30;;;;;;;23.98;53.74;99943.53;7315188;19;129395;-40
2023/06/03 00:32:22;;;;;;;53.50;2.73;;;;;;;23.97;54.04;99931.34;7313013;19;129857;-40
2023/06/03 00:34:48;;;;;;;34.70;1.93;;;;;;;24.00;54.11;99938.94;7315255;19;128842;-41
2023/06/03 00:37:13;;;;;;;27.00;1.50;;;;;;;24.00;53.81;99944.19;7315097;19;129398;-39
2023/06/03 00:39:38;;;;;;;23.50;1.30;;;;;;;24.00;53.86;99947.66;7314993;19;129787;-41
2023/06/03 00:42:04;;;;;;;64.37;3.40;;;;;;;23.97;54.47;99937.41;7313704;19;128859;-39
2023/06/03 00:44:29;;;;;;;45.67;2.67;;;;;;;23.99;54.76;99945.19;7315188;19;128862;-40
2023/06/03 00:46:55;;;;;;;32.63;1.73;;;;;;;23.99;53.82;99938.13;7312343;19;129163;-41
2023/06/03 00:49:21;;;;;;;33.38;1.90;;;;;;;23.88;54.28;99919.09;7314094;19;129356;-39
2023/06/03 00:51:47;;;;;;;38.77;2.13;;;;;;;23.98;54.53;99941.72;7314651;19;129106;-41
2023/06/03 00:54:14;;;;;;;26.90;1.52;;;;;;;23.97;53.83;99939.22;7313086;19;129248;-39
2023/06/03 00:56:44;;;;;;;30.52;1.73;;;;;;;23.89;54.99;99918.09;7315287;19;130607;-39
2023/06/03 00:59:15;;;;;;;28.13;1.50;;;;;;;23.98;54.84;99944.34;7314514;19;129929;-40
2023/06/03 01:01:42;;;;;;;41.22;2.25;;;;;;;23.98;54.46;99940.91;7313766;19;128939;-40
2023/06/03 01:04:08;;;;;;;39.05;2.13;;;;;;;23.96;53.95;99942.81;7312052;19;129635;-41
2023/06/03 01:06:45;;;;;;;29.02;1.58;;;;;;;23.97;54.27;99940.03;7311987;19;130958;-41
2023/06/03 01:09:44;;;;;;;32.65;1.77;;;;;;;24.01;55.28;99943.25;7314794;19;129298;-41
2023/06/03 01:12:33;;;;;;;29.25;1.70;;;;;;;23.98;54.46;99944.34;7313266;19;128972;-41
2023/06/03 01:15:07;;;;;;;29.40;1.67;;;;;;;23.99;54.57;99948.66;7313936;19;129161;-40
2023/06/03 01:17:39;;;;;;;19.42;1.05;;;;;;;23.97;53.80;99945.31;7314001;19;130250;-41
2023/06/03 01:20:09;;;;;;;28.85;1.67;;;;;;;23.95;53.73;99941.16;7313725;19;129398;-39
2023/06/03 01:22:41;;;;;;;50.97;2.60;;;;;;;23.97;54.35;99952.34;7312048;19;129409;-39
2023/06/03 01:25:09;;;;;;;34.88;1.90;;;;;;;23.96;54.15;99950.69;7313470;19;128841;-39
2023/06/03 01:27:36;;;;;;;7.72;0.60;;;;;;;23.97;53.87;99950.56;7314054;19;129079;-41
2023/06/03 01:30:03;;;;;;;33.10;1.83;;;;;;;23.96;54.07;99954.16;7313507;19;129889;-40
2023/06/03 01:32:30;;;;;;;35.42;1.95;;;;;;;23.98;54.53;99951.41;7311881;19;130367;-39
2023/06/03 01:34:56;;;;;;;16.67;1.17;;;;;;;23.96;53.93;99950.69;7313762;19;129763;-38
2023/06/03 01:37:22;;;;;;;20.90;1.23;;;;;;;23.96;54.13;99943.66;7313333;19;129246;-39
2023/06/03 01:39:48;;;;;;;37.07;2.03;;;;;;;23.97;54.43;99947.94;7313663;19;129255;-39
2023/06/03 01:42:13;;;;;;;54.50;2.83;;;;;;;23.98;54.13;99946.97;7311740;19;129277;-39
2023/06/03 01:44:40;;;;;;;41.67;2.23;;;;;;;23.97;54.22;99942.69;7312898;19;129632;-40
2023/06/03 01:47:06;;;;;;;30.88;1.73;;;;;;;23.85;54.05;99925.44;7311348;19;129343;-41
2023/06/03 01:49:31;;;;;;;25.77;1.47;;;;;;;23.96;54.01;99940.19;7313034;19;129123;-41
2023/06/03 01:52:00;;;;;;;70.95;3.65;;;;;;;23.87;54.54;99927.94;7312076;19;128965;-42
2023/06/03 01:54:27;;;;;;;42.75;2.40;;;;;;;23.95;54.56;99946.41;7313529;19;129249;-39
2023/06/03 01:56:53;;;;;;;46.92;2.47;;;;;;;23.87;54.25;99934.00;7313489;19;129456;-40
2023/06/03 01:59:23;;;;;;;29.70;1.65;;;;;;;23.95;54.29;99947.25;7312849;19;129418;-40
2023/06/03 02:01:51;;;;;;;62.88;3.47;;;;;;;23.93;53.84;99945.75;7310254;19;129465;-41
2023/06/03 02:04:17;;;;;;;53.17;2.90;;;;;;;23.86;54.28;99932.38;7310775;19;129158;-40
2023/06/03 02:06:48;;;;;;;30.43;1.70;;;;;;;23.94;54.97;99950.84;7309864;19;130084;-39
2023/06/03 02:09:13;;;;;;;38.30;2.15;;;;;;;23.94;54.40;99956.09;7312256;19;129641;-40
2023/06/03 02:11:42;;;;;;;37.47;2.00;;;;;;;23.95;55.18;99956.91;7311377;19;129247;-40
2023/06/03 02:14:07;;;;;;;42.75;2.22;;;;;;;23.95;54.46;99952.50;7309984;19;129690;-40
2023/06/03 02:16:32;;;;;;;29.37;1.60;;;;;;;23.93;53.55;99954.44;7311777;19;129554;-40
2023/06/03 02:18:57;;;;;;;42.80;2.30;;;;;;;23.95;54.12;99959.53;7312128;19;130212;-40
2023/06/03 02:21:23;;;;;;;24.83;1.50;;;;;;;23.95;54.16;99955.13;7311291;19;130152;-40
2023/06/03 02:23:48;;;;;;;57.97;3.05;;;;;;;23.94;54.26;99961.34;7308111;19;129181;-41
2023/06/03 02:26:14;;;;;;;30.07;1.60;;;;;;;23.95;54.00;99957.75;7311175;19;129950;-41
2023/06/03 02:28:40;;;;;;;31.20;1.77;;;;;;;23.94;53.61;99961.34;7311500;19;129286;-40
2023/06/03 02:31:05;;;;;;;62.13;3.37;;;;;;;23.94;54.42;99963.97;7306581;19;131813;-39
2023/06/03 02:33:30;;;;;;;26.93;1.50;;;;;;;23.91;54.12;99961.66;7306058;19;130187;-42
2023/06/03 02:35:56;;;;;;;32.70;1.73;;;;;;;23.94;53.81;99963.97;7317149;19;129397;-40
2023/06/03 02:38:21;;;;;;;40.38;2.28;;;;;;;23.95;53.95;99963.00;7318160;19;130887;-39
2023/06/03 02:40:47;;;;;;;37.07;1.93;;;;;;;23.94;54.74;99956.09;7316701;19;129539;-41
2023/06/03 02:43:13;;;;;;;34.00;1.85;;;;;;;23.92;53.84;99954.56;7315873;19;129065;-40
2023/06/03 02:45:39;;;;;;;31.88;1.60;;;;;;;23.93;53.44;99946.56;7318068;19;129318;-41
2023/06/03 02:48:04;;;;;;;23.08;1.35;;;;;;;23.93;53.58;99954.44;7317530;19;129011;-40
2023/06/03 02:50:29;;;;;;;80.23;4.43;;;;;;;23.93;53.69;99954.44;7317163;19;129072;-40
2023/06/03 02:52:57;;;;;;;67.47;3.83;;;;;;;23.95;53.40;99951.66;7316101;19;131432;-41
2023/06/03 02:55:23;;;;;;;39.15;2.33;;;;;;;23.91;54.21;99953.78;7314356;19;130271;-41
2023/06/03 02:57:49;;;;;;;73.70;4.00;;;;;;;23.93;53.78;99948.38;7314295;19;131066;-40
2023/06/03 03:00:15;;;;;;;52.77;2.77;;;;;;;23.83;54.23;99937.91;7316739;19;129087;-37
2023/06/03 03:02:40;;;;;;;77.23;4.00;;;;;;;23.95;53.90;99956.91;7315558;19;128967;-39
2023/06/03 03:05:06;;;;;;;33.80;1.83;;;;;;;23.94;54.06;99955.25;7312920;19;130023;-40
2023/06/03 03:07:32;;;;;;;40.07;2.23;;;;;;;23.94;54.25;99960.53;7312599;19;130889;-40
2023/06/03 03:09:58;;;;;;;62.30;3.27;;;;;;;23.91;54.82;99956.41;7314939;19;129372;-38
2023/06/03 03:12:23;;;;;;;28.92;1.58;;;;;;;23.92;53.21;99960.66;7315600;19;130822;-41
2023/06/03 03:14:49;;;;;;;29.23;1.70;;;;;;;23.91;53.91;99961.66;7316429;19;129410;-41
2023/06/03 03:17:14;;;;;;;46.07;2.37;;;;;;;23.82;54.10;99941.50;7315098;19;129176;-42
2023/06/03 03:19:39;;;;;;;52.53;2.73;;;;;;;23.94;54.32;99968.41;7315271;19;128939;-40
2023/06/03 03:22:05;;;;;;;44.97;2.43;;;;;;;23.94;54.24;99971.84;7313435;19;130136;-39
2023/06/03 03:24:31;;;;;;;52.67;3.17;;;;;;;23.94;54.18;99981.53;7312359;19;131141;-42
2023/06/03 03:26:56;;;;;;;77.63;4.23;;;;;;;23.92;54.01;99978.22;7313617;19;131241;-40
2023/06/03 03:29:23;;;;;;;65.43;3.70;;;;;;;23.94;54.17;99992.88;7315147;19;130339;-39
2023/06/03 03:31:59;;;;;;;12.32;0.88;;;;;;;23.82;54.59;99970.38;7314925;19;129063;-41
2023/06/03 03:34:24;;;;;;;56.08;2.95;;;;;;;23.81;53.91;99968.75;7315455;19;129406;-38
2023/06/03 03:36:51;;;;;;;33.33;1.77;;;;;;;23.91;54.77;99977.41;7314881;19;131985;-40
2023/06/03 03:39:16;;;;;;;46.60;2.33;;;;;;;23.90;54.27;99985.44;7316930;19;128991;-40
2023/06/03 03:41:43;;;;;;;27.77;1.47;;;;;;;23.90;54.01;99981.00;7317288;19;129239;-41
2023/06/03 03:44:08;;;;;;;41.28;2.33;;;;;;;23.90;53.86;99986.25;7314305;19;129696;-40
2023/06/03 03:46:33;;;;;;;51.67;2.83;;;;;;;23.81;54.22;99970.53;7312530;19;129699;-41
2023/06/03 03:48:59;;;;;;;39.87;2.10;;;;;;;23.88;54.78;99982.94;7316350;19;129279;-40
2023/06/03 03:51:24;;;;;;;27.67;1.63;;;;;;;23.90;54.38;99986.25;7317176;19;128868;-39
2023/06/03 03:53:50;;;;;;;6.50;0.50;;;;;;;23.88;54.22;99985.56;7315269;19;129989;-40
2023/06/03 03:56:18;;;;;;;41.00;2.07;;;;;;;23.79;54.58;99968.06;7316069;19;129484;-42
2023/06/03 03:58:44;;;;;;;37.75;2.00;;;;;;;23.79;53.56;99975.09;7316519;19;129144;-40
2023/06/03 04:01:12;;;;;;;41.63;2.23;;;;;;;23.88;54.69;99990.81;7316313;19;129972;-41
2023/06/03 04:03:42;;;;;;;49.80;2.75;;;;;;;23.87;54.49;99991.78;7313003;19;129959;-42
2023/06/03 04:06:09;;;;;;;39.22;2.10;;;;;;;23.89;53.76;99991.63;7315076;19;130471;-41
2023/06/03 04:08:46;;;;;;;71.00;3.65;;;;;;;23.79;55.34;99973.31;7315095;19;128900;-38
2023/06/03 04:11:38;;;;;;;30.63;1.67;;;;;;;23.91;54.81;99992.34;7315571;19;129023;-40
2023/06/03 04:14:08;;;;;;;60.78;3.13;;;;;;;23.88;54.74;99996.06;7311906;19;129305;-40
2023/06/03 04:16:51;;;;;;;27.52;1.65;;;;;;;23.88;54.22;99990.81;7316068;19;129751;-40
2023/06/03 04:19:27;;;;;;;20.42;1.23;;;;;;;23.87;54.86;99989.16;7316759;19;129253;-42
2023/06/03 04:21:53;;;;;;;20.55;1.20;;;;;;;23.83;54.18;99982.53;7314700;19;128889;-40
2023/06/03 04:24:19;;;;;;;30.23;1.70;;;;;;;23.86;53.89;99984.91;7312244;19;129936;-41
2023/06/03 04:26:44;;;;;;;54.87;2.87;;;;;;;23.87;54.65;99991.78;7314243;19;130560;-38
2023/06/03 04:29:10;;;;;;;29.30;1.63;;;;;;;23.87;54.47;100001.44;7315339;19;128852;-40
2023/06/03 04:31:35;;;;;;;32.30;1.67;;;;;;;23.87;54.65;100002.28;7315268;19;128934;-41
2023/06/03 04:34:02;;;;;;;52.22;2.88;;;;;;;23.85;54.08;99998.97;7313710;19;129459;-41
2023/06/03 04:36:27;;;;;;;32.83;1.83;;;;;;;23.86;54.44;100010.31;7314416;19;130968;-42
2023/06/03 04:38:53;;;;;;;35.67;1.97;;;;;;;23.87;53.44;100018.03;7316394;19;128974;-40
2023/06/03 04:41:18;;;;;;;54.50;3.13;;;;;;;23.86;54.35;100011.16;7313359;19;129492;-40
2023/06/03 04:43:45;;;;;;;43.15;2.22;;;;;;;23.86;54.61;100005.91;7312303;19;129234;-41
2023/06/03 04:46:10;;;;;;;51.95;2.92;;;;;;;23.86;54.44;100010.31;7312312;19;130323;-38
2023/06/03 04:48:36;;;;;;;29.93;1.70;;;;;;;23.86;54.31;100005.06;7313084;19;129182;-40
2023/06/03 04:51:06;;;;;;;73.53;4.27;;;;;;;23.87;54.45;100018.03;7310852;19;130929;-41
2023/06/03 04:53:32;;;;;;;71.60;3.90;;;;;;;23.85;54.46;100014.72;7309704;19;130260;-39
2023/06/03 04:55:57;;;;;;;66.50;3.70;;;;;;;23.85;55.10;100014.72;7311132;19;130316;-40
2023/06/03 04:58:24;;;;;;;40.20;2.22;;;;;;;23.84;53.70;100014.88;7311199;19;129097;-40
2023/06/03 05:00:49;;;;;;;62.28;3.47;;;;;;;23.84;54.47;100018.34;7311440;19;131212;-42
2023/06/03 05:03:16;;;;;;;53.27;2.73;;;;;;;23.87;54.95;100017.22;7310264;19;129920;-39
2023/06/03 05:05:42;;;;;;;;;;;;;;;23.94;54.43;100013.88;7314273;19;129903;-40
2023/06/03 05:08:09;;;;;;;29.67;1.58;;;;;;;23.86;54.38;100020.81;7314347;19;128986;-40
2023/06/03 05:10:35;;;;;;;48.72;2.75;;;;;;;23.76;54.83;99989.34;7311487;19;129180;-41
2023/06/03 05:13:01;;;;;;;79.70;4.03;;;;;;;23.86;54.21;100020.81;7311671;19;129581;-41
2023/06/03 05:15:26;;;;;;;21.33;1.35;;;;;;;23.84;54.29;100018.34;7313444;19;129462;-41
2023/06/03 05:17:52;;;;;;;43.07;2.33;;;;;;;23.76;54.19;100005.09;7314244;19;129464;-39
2023/06/03 05:20:17;;;;;;;47.83;2.80;;;;;;;23.84;54.49;100020.97;7312282;19;129539;-40
2023/06/03 05:22:43;;;;;;;30.42;1.65;;;;;;;23.78;54.99;100008.44;7312697;19;129432;-41
2023/06/03 05:25:08;;;;;;;34.20;1.80;;;;;;;23.83;53.57;100016.66;7313028;19;129574;-39
2023/06/03 05:27:34;;;;;;;49.73;2.50;;;;;;;23.86;53.95;100020.81;7311366;19;129935;-38
2023/06/03 05:29:59;;;;;;;41.50;2.30;;;;;;;23.84;54.26;100018.34;7312456;19;129362;-40
2023/06/03 05:32:25;;;;;;;52.77;2.67;;;;;;;23.84;54.30;100018.34;7310119;19;129710;-40
2023/06/03 05:34:50;;;;;;;25.37;1.57;;;;;;;23.82;54.05;100020.28;7313016;19;129159;-38
2023/06/03 05:37:15;;;;;;;38.67;2.13;;;;;;;23.84;54.64;100014.88;7310604;19;128904;-40
2023/06/03 05:39:44;;;;;;;27.05;1.80;;;;;;;23.82;54.94;100022.91;7310471;19;128902;-41
2023/06/03 05:42:09;;;;;;;54.67;2.77;;;;;;;23.83;53.84;100024.53;7312580;19;128959;-40
2023/06/03 05:44:34;;;;;;;17.30;1.00;;;;;;;23.85;54.74;100025.25;7310905;19;129819;-40
2023/06/03 05:47:00;;;;;;;56.95;3.17;;;;;;;23.84;54.50;100023.59;7311226;19;129374;-41
2023/06/03 05:49:25;;;;;;;38.08;2.15;;;;;;;23.82;54.10;100017.66;7310620;19;129412;-40
2023/06/03 05:51:50;;;;;;;104.50;5.55;;;;;;;23.84;54.13;100023.59;7309774;19;129530;-39
2023/06/03 05:54:16;;;;;;;28.08;1.50;;;;;;;23.82;54.65;100030.78;7304718;19;129447;-40
2023/06/03 05:56:41;;;;;;;26.17;1.40;;;;;;;23.80;54.66;100022.22;7310947;19;129085;-41
2023/06/03 05:59:07;;;;;;;46.53;2.45;;;;;;;23.83;54.90;100026.38;7308165;19;130140;-41
2023/06/03 06:01:35;;;;;;;44.43;2.40;;;;;;;23.75;54.57;100015.75;7311721;19;129550;-41
2023/06/03 06:04:01;;;;;;;61.53;3.30;;;;;;;23.82;55.48;100029.94;7305420;19;130343;-41
2023/06/03 06:06:26;;;;;;;41.43;2.27;;;;;;;23.82;54.28;100036.03;7310848;19;129258;-40
2023/06/03 06:08:52;;;;;;;44.08;2.17;;;;;;;23.83;54.50;100032.41;7306117;19;129190;-40
2023/06/03 06:11:18;;;;;;;39.10;1.93;;;;;;;23.76;54.69;100023.50;7310298;19;129751;-38
2023/06/03 06:13:43;;;;;;;35.35;1.85;;;;;;;23.83;54.49;100037.69;7310901;19;130790;-42
2023/06/03 06:16:09;;;;;;;21.63;1.20;;;;;;;23.83;54.67;100037.69;7311928;19;128862;-40
2023/06/03 06:18:35;;;;;;;68.57;3.70;;;;;;;23.83;54.34;100032.41;7311896;19;129231;-41
2023/06/03 06:21:00;;;;;;;22.45;1.38;;;;;;;23.82;54.00;100036.03;7311785;19;129398;-39
2023/06/03 06:23:26;;;;;;;32.70;1.83;;;;;;;23.83;53.90;100039.50;7310568;19;129870;-39
2023/06/03 06:25:52;;;;;;;30.37;1.73;;;;;;;23.82;54.35;100037.81;7311269;19;129016;-39
2023/06/03 06:28:19;;;;;;;;;;;;;;;23.88;55.07;100035.44;7310191;19;128942;-39
2023/06/03 06:30:44;;;;;;;40.88;2.13;;;;;;;23.84;53.68;100033.25;7311581;19;130918;-39
2023/06/03 06:33:13;;;;;;;46.60;2.50;;;;;;;23.83;55.20;100036.88;7309025;19;130716;-40
2023/06/03 06:35:39;;;;;;;25.35;1.50;;;;;;;23.81;54.27;100038.81;7306477;19;129665;-41
2023/06/03 06:38:05;;;;;;;50.70;2.67;;;;;;;23.81;53.60;100037.00;7310979;19;129949;-41
2023/06/03 06:40:34;;;;;;;68.70;3.83;;;;;;;23.82;55.02;100036.03;7312051;19;130060;-40
2023/06/03 06:43:00;;;;;;;29.13;1.70;;;;;;;23.82;54.94;100035.19;7309217;19;130036;-39
2023/06/03 06:45:28;;;;;;;56.97;3.03;;;;;;;23.79;54.23;100031.06;7308728;19;129295;-41
2023/06/03 06:48:13;;;;;;;57.80;3.03;;;;;;;23.80;54.78;100040.59;7308199;19;129653;-40
2023/06/03 06:50:55;;;;;;;72.22;4.00;;;;;;;23.82;54.42;100043.91;7310982;19;129708;-40
2023/06/03 06:53:22;;;;;;;57.17;3.05;;;;;;;23.80;53.58;100040.59;7309099;19;131134;-40
2023/06/03 06:55:52;;;;;;;29.98;1.77;;;;;;;23.81;54.46;100044.06;7311798;19;129120;-41
2023/06/03 06:58:19;;;;;;;56.25;3.35;;;;;;;23.77;54.85;100040.88;7303860;19;129091;-42
2023/06/03 07:00:45;;;;;;;28.63;1.65;;;;;;;23.79;53.95;100046.81;7309504;19;129062;-40
2023/06/03 07:03:16;;;;;;;80.95;3.92;;;;;;;23.78;55.18;100041.72;7303368;19;129596;-40
2023/06/03 07:05:42;;;;;;;45.38;2.50;;;;;;;23.76;54.40;100039.25;7310637;19;128940;-39
2023/06/03 07:08:08;;;;;;;43.33;2.50;;;;;;;23.78;54.40;100042.56;7306921;19;129522;-40
2023/06/03 07:10:35;;;;;;;44.40;2.57;;;;;;;23.77;54.37;100043.50;7309682;19;129336;-41
2023/06/03 07:13:02;;;;;;;49.45;2.70;;;;;;;23.77;54.97;100050.53;7309277;19;130309;-40
2023/06/03 07:15:28;;;;;;;79.43;4.25;;;;;;;23.76;54.15;100047.13;7310208;19;129528;-41
2023/06/03 07:17:55;;;;;;;26.37;1.63;;;;;;;23.78;54.29;100045.19;7309979;19;129089;-42
2023/06/03 07:20:34;;;;;;;37.13;2.47;;;;;;;23.77;55.27;100048.75;7310119;19;129224;-41
2023/06/03 07:23:00;;;;;;;49.72;2.75;;;;;;;23.73;54.23;100042.16;7316080;19;129300;-41
2023/06/03 07:25:38;;;;;;;46.30;2.58;;;;;;;23.74;55.13;100038.56;7317488;19;129091;-39
2023/06/03 07:28:05;;;;;;;41.88;2.35;;;;;;;23.74;54.08;100046.44;7313779;19;129133;-39
2023/06/03 07:30:34;;;;;;;71.25;4.07;;;;;;;23.76;54.63;100044.50;7314882;19;129439;-40
2023/06/03 07:33:04;;;;;;;32.63;1.98;;;;;;;23.76;54.58;100036.63;7313073;19;129799;-41
2023/06/03 07:35:30;;;;;;;35.38;1.95;;;;;;;23.74;54.49;100043.78;7316320;19;129407;-42
2023/06/03 07:37:56;;;;;;;49.30;2.70;;;;;;;23.76;54.41;100041.88;7317250;19;128986;-40
2023/06/03 07:40:35;;;;;;;55.83;3.27;;;;;;;23.75;54.84;100048.06;7311544;19;129004;-41
2023/06/03 07:43:01;;;;;;;49.63;2.95;;;;;;;23.71;54.66;100033.59;7310889;19;129888;-40
2023/06/03 07:45:27;;;;;;;35.37;2.03;;;;;;;23.73;54.43;100038.69;7312408;19;129732;-41
2023/06/03 07:47:53;;;;;;;50.92;2.78;;;;;;;23.75;54.53;100049.88;7312741;19;129045;-40
2023/06/03 07:50:25;;;;;;;75.45;4.40;;;;;;;23.75;54.66;100047.25;7314558;19;129708;-41
2023/06/03 07:53:00;;;;;;;41.20;2.67;;;;;;;23.77;54.77;100042.66;7313403;19;130297;-40
2023/06/03 07:55:26;;;;;;;48.30;2.90;;;;;;;23.75;54.24;100044.63;7312810;19;129449;-41
2023/06/03 07:57:51;;;;;;;34.90;2.00;;;;;;;23.74;54.58;100048.22;7315071;19;129168;-40
2023/06/03 08:00:17;;;;;;;62.93;3.50;;;;;;;23.74;54.60;100049.06;7315752;19;129118;-39
2023/06/03 08:02:46;;;;;;;64.87;3.53;;;;;;;23.72;54.94;100045.72;7313918;19;129765;-41
2023/06/03 08:05:12;;;;;;;38.97;2.45;;;;;;;23.73;55.17;100046.56;7315973;19;128851;-40
2023/06/03 08:07:38;;;;;;;45.53;2.65;;;;;;;23.60;54.75;100025.06;7314577;19;129041;-40
2023/06/03 08:10:04;;;;;;;49.33;2.67;;;;;;;23.70;53.76;100045.03;7316147;19;129483;-40
2023/06/03 08:12:34;;;;;;;28.20;1.77;;;;;;;23.69;55.17;100046.03;7314952;19;129104;-41
2023/06/03 08:15:01;;;;;;;34.17;2.65;;;;;;;23.72;54.44;100050.16;7314668;19;128986;-40
2023/06/03 08:17:37;;;;;;;;;;;;;;;23.78;54.89;100034.69;7315819;19;129212;-40
2023/06/03 08:20:08;;;;;;;55.67;3.05;;;;;;;23.72;54.05;100029.97;7315000;19;129559;-41
2023/06/03 08:22:41;;;;;;;39.00;2.20;;;;;;;23.71;55.27;100036.22;7314069;19;129464;-39
2023/06/03 08:25:07;;;;;;;33.15;2.10;;;;;;;23.61;54.60;100022.28;7312850;19;129478;-41
2023/06/03 08:27:33;;;;;;;27.37;1.87;;;;;;;23.69;54.77;100030.28;7313057;19;130159;-39
2023/06/03 08:29:59;;;;;;;47.75;2.85;;;;;;;23.70;54.70;100031.09;7310576;19;129100;-39
2023/06/03 08:32:24;;;;;;;44.80;2.50;;;;;;;23.58;55.06;100019.94;7308661;19;130268;-40
2023/06/03 08:34:49;;;;;;;26.00;1.50;;;;;;;23.66;53.72;100027.94;7313066;19;129070;-40
2023/06/03 08:37:15;;;;;;;31.00;2.07;;;;;;;23.69;54.84;100040.78;7314146;19;129180;-39
2023/06/03 08:39:41;;;;;;;34.50;1.95;;;;;;;23.70;54.27;100038.97;7314821;19;129522;-39
2023/06/03 08:42:07;;;;;;;49.17;2.70;;;;;;;23.71;54.55;100038.84;7313796;19;129436;-40
2023/06/03 08:44:52;;;;;;;39.07;2.60;;;;;;;23.71;55.40;100038.00;7314414;19;128989;-40
2023/06/03 08:47:31;;;;;;;35.22;2.03;;;;;;;23.68;54.73;100028.63;7314405;19;129713;-42
2023/06/03 08:50:08;;;;;;;30.75;2.08;;;;;;;23.65;54.92;100033.34;7312962;19;129607;-42
2023/06/03 08:52:37;;;;;;;39.60;2.40;;;;;;;23.67;54.33;100032.19;7311488;19;130273;-40
2023/06/03 08:55:05;;;;;;;46.10;2.45;;;;;;;23.67;54.77;100032.19;7311296;19;129030;-41
2023/06/03 08:58:23;;;;;;;46.80;2.53;;;;;;;23.59;55.27;100003.22;7313955;19;129082;-42
2023/06/03 09:00:55;;;;;;;27.23;1.65;;;;;;;23.63;54.05;100022.13;7307459;19;129423;-40
2023/06/03 09:03:22;;;;;;;62.15;3.70;;;;;;;23.66;53.91;100024.47;7309668;19;129853;-41
2023/06/03 09:05:48;;;;;;;48.10;2.80;;;;;;;23.65;54.70;100023.63;7313998;19;128900;-39
2023/06/03 09:08:16;;;;;;;39.53;2.33;;;;;;;23.67;54.52;100016.44;7308668;19;129620;-41
2023/06/03 09:10:45;;;;;;;28.23;1.67;;;;;;;23.69;55.00;100008.44;7311336;19;130764;-41
2023/06/03 09:13:13;;;;;;;70.57;4.05;;;;;;;23.67;54.90;100021.69;7309244;19;129245;-39
2023/06/03 09:15:41;;;;;;;49.70;2.85;;;;;;;23.66;55.00;100024.47;7314435;19;129294;-39
2023/06/03 09:18:06;;;;;;;32.70;1.90;;;;;;;23.55;54.83;99987.91;7308935;19;129580;-40
2023/06/03 09:20:35;;;;;;;46.73;2.83;;;;;;;23.66;54.53;100014.81;7313208;19;129192;-39
2023/06/03 09:23:01;;;;;;;39.83;2.28;;;;;;;23.66;54.75;100035.81;7311687;19;129360;-41
2023/06/03 09:25:26;;;;;;;53.93;3.20;;;;;;;23.66;54.62;100030.56;7312859;19;129908;-39
2023/06/03 09:27:51;;;;;;;47.45;2.88;;;;;;;23.65;53.76;100023.63;7306052;19;131144;-41
2023/06/03 09:30:17;;;;;;;58.73;3.47;;;;;;;23.67;54.41;100016.44;7311770;19;129759;-40
2023/06/03 09:32:42;;;;;;;84.20;4.47;;;;;;;23.67;54.90;100026.94;7308999;19;130212;-39
2023/06/03 09:35:09;;;;;;;92.97;5.47;;;;;;;23.65;54.22;100002.63;7309413;19;129612;-41
2023/06/03 09:37:34;;;;;;;88.65;5.05;;;;;;;23.66;53.99;100014.81;7312113;19;131106;-37
2023/06/03 09:40:01;;;;;;;62.17;3.75;;;;;;;23.67;54.25;100011.19;7305780;19;130548;-41
2023/06/03 09:42:59;;;;;;;50.22;2.75;;;;;;;23.71;55.23;100011.75;7312019;19;131100;-40
2023/06/03 09:45:25;;;;;;;11.30;0.90;;;;;;;23.68;54.55;100015.50;7306922;19;129876;-42
2023/06/03 09:47:50;;;;;;;52.63;2.92;;;;;;;23.65;54.22;100010.50;7310388;19;129058;-40
2023/06/03 09:50:16;;;;;;;58.65;3.20;;;;;;;23.66;54.32;100009.56;7310229;19;130171;-39
2023/06/03 09:52:41;;;;;;;37.22;2.40;;;;;;;23.67;53.92;100013.81;7311371;19;130357;-38
2023/06/03 09:55:09;;;;;;;22.63;1.70;;;;;;;23.62;53.70;100002.94;7311673;19;129138;-40
2023/06/03 09:57:36;;;;;;;75.22;3.92;;;;;;;23.64;53.88;100011.50;7311446;19;129237;-40
2023/06/03 10:00:11;;;;;;;37.88;2.28;;;;;;;23.56;54.96;100000.88;7307438;19;129893;-39
2023/06/03 10:02:46;;;;;;;35.95;2.13;;;;;;;23.62;55.15;100002.94;7311529;19;131880;-40
2023/06/03 10:05:29;;;;;;;29.50;1.80;;;;;;;23.67;55.12;100016.44;7313545;19;129503;-39
2023/06/03 10:07:55;;;;;;;63.60;3.58;;;;;;;23.63;54.78;100007.22;7309114;19;132376;-41
2023/06/03 10:10:22;;;;;;;59.85;3.33;;;;;;;23.65;54.89;100013.13;7311355;19;130317;-41
2023/06/03 10:12:48;;;;;;;33.53;1.98;;;;;;;23.63;53.89;100009.00;7309132;19;129316;-39
2023/06/03 10:15:32;;;;;;;29.55;1.77;;;;;;;23.65;54.23;100015.75;7312221;19;130140;-41
2023/06/03 10:17:58;;;;;;;40.33;2.42;;;;;;;23.64;53.93;100015.91;7309098;19;129810;-41
2023/06/03 10:20:32;;;;;;;69.37;4.17;;;;;;;23.63;55.02;100015.09;7310270;19;132691;-41
2023/06/03 10:23:00;;;;;;;60.78;3.53;;;;;;;23.62;54.57;100007.38;7309539;19;131801;-38
2023/06/03 10:25:26;;;;;;;59.05;3.30;;;;;;;23.63;55.26;100004.59;7309022;19;129761;-40
2023/06/03 10:27:51;;;;;;;53.73;3.20;;;;;;;23.61;54.17;100011.78;7309952;19;130574;-40
2023/06/03 10:30:17;;;;;;;51.30;3.10;;;;;;;23.63;54.58;100007.22;7305910;19;130217;-40
2023/06/03 10:32:44;;;;;;;46.67;2.67;;;;;;;23.64;54.44;100006.25;7310073;19;129889;-41
2023/06/03 10:35:10;;;;;;;58.00;3.30;;;;;;;23.64;54.85;100006.25;7312137;19;129058;-39
2023/06/03 10:37:37;;;;;;;29.80;1.77;;;;;;;23.51;53.45;99992.59;7310350;19;129564;-41
2023/06/03 10:40:05;;;;;;;31.02;1.98;;;;;;;23.60;54.29;100011.94;7311368;19;129564;-38
2023/06/03 10:42:31;;;;;;;72.32;4.00;;;;;;;23.61;53.80;100014.41;7308688;19;131246;-41
2023/06/03 10:44:57;;;;;;;42.35;2.28;;;;;;;23.64;54.57;100016.75;7311292;19;130214;-40
2023/06/03 10:47:25;;;;;;;44.57;2.70;;;;;;;23.63;54.35;100015.09;7310483;19;130778;-42
2023/06/03 10:49:55;;;;;;;29.35;1.80;;;;;;;23.55;54.59;99998.41;7308685;19;130030;-41
2023/06/03 10:52:43;;;;;;;22.75;1.55;;;;;;;23.53;54.57;100016.09;7308390;19;129661;-41
2023/06/03 10:55:32;;;;;;;36.95;2.20;;;;;;;23.60;54.55;100019.81;7308903;19;128818;-42
2023/06/03 10:58:12;;;;;;;36.92;2.10;;;;;;;23.59;54.83;100003.22;7315575;19;130292;-42
2023/06/03 11:00:58;;;;;;;73.47;3.97;;;;;;;23.62;54.24;100004.75;7317089;19;129244;-41
2023/06/03 11:03:29;;;;;;;52.33;2.95;;;;;;;23.39;54.69;100008.66;7316278;19;130288;-39
2023/06/03 11:06:21;;;;;;;38.08;2.35;;;;;;;23.46;55.33;100002.69;7318591;19;128706;-40
2023/06/03 11:09:05;;;;;;;51.58;2.92;;;;;;;23.30;54.54;100002.47;7315676;19;129337;-41
2023/06/03 11:11:52;;;;;;;49.95;2.70;;;;;;;23.29;55.56;99994.75;7317793;19;129774;-42
2023/06/03 11:14:29;;;;;;;29.90;1.80;;;;;;;23.19;55.65;100003.41;7314608;19;130290;-41
2023/06/03 11:16:58;;;;;;;30.00;1.85;;;;;;;22.69;48.95;99995.84;7317928;19;129310;-39
2023/06/03 11:19:30;;;;;;;29.73;1.98;;;;;;;22.63;49.59;99991.13;7317721;19;129603;-40